Time;durP1;ratioP1;P1;durP2;ratioP2;P2;SDS_P1;SDS_P2;PMS_P1;PMS_P2;Temp;Humidity;BMP_temperature;BMP_pressure;BME280_temperature;BME280_humidity;BME280_pressure;Samples;Min_cycle;Max_cycle;Signal;HPM_P1;HPM_P2
2023/06/13 00:01:37;;;;;;;4.65;2.08;;;20.60;99.90;;;;;;5079454;28;20048;-34
2023/06/13 00:04:03;;;;;;;5.03;2.30;;;20.60;99.90;;;;;;5079993;28;20056;-34
2023/06/13 00:06:30;;;;;;;3.92;2.00;;;20.60;99.90;;;;;;5079622;28;20587;-34
2023/06/13 00:08:57;;;;;;;3.42;1.83;;;20.50;99.90;;;;;;5079860;28;20045;-34
2023/06/13 00:11:22;;;;;;;4.05;2.20;;;20.50;99.90;;;;;;5078503;28;20051;-34
2023/06/13 00:13:48;;;;;;;3.13;1.83;;;20.40;99.90;;;;;;5076639;28;20048;-34
2023/06/13 00:16:15;;;;;;;3.65;1.90;;;20.40;99.90;;;;;;5081075;28;20140;-34
2023/06/13 00:18:40;;;;;;;5.03;2.25;;;20.30;99.90;;;;;;5080301;28;20051;-34
2023/06/13 00:21:07;;;;;;;4.00;2.33;;;20.30;99.90;;;;;;5068879;28;20056;-34
2023/06/13 00:23:33;;;;;;;4.60;2.38;;;20.20;99.90;;;;;;5062146;28;20044;-34
2023/06/13 00:25:59;;;;;;;5.03;2.10;;;20.20;99.90;;;;;;5067491;28;20051;-34
2023/06/13 00:28:24;;;;;;;4.53;2.13;;;20.10;99.90;;;;;;5064397;28;20056;-34
2023/06/13 00:30:51;;;;;;;7.57;2.40;;;20.10;99.90;;;;;;5064525;28;20110;-34
2023/06/13 00:33:17;;;;;;;5.70;2.45;;;20.00;99.90;;;;;;5066260;28;20870;-34
2023/06/13 00:35:43;;;;;;;3.53;2.20;;;20.00;99.90;;;;;;5063899;28;20506;-34
2023/06/13 00:38:09;;;;;;;5.53;2.70;;;19.90;99.90;;;;;;5067575;28;20079;-34
2023/06/13 00:40:35;;;;;;;5.05;2.33;;;19.90;99.90;;;;;;5067726;28;20197;-34
2023/06/13 00:43:01;;;;;;;4.57;2.22;;;19.90;99.90;;;;;;5066611;28;20056;-34
2023/06/13 00:45:28;;;;;;;5.03;2.20;;;19.80;99.90;;;;;;5066271;28;20068;-34
2023/06/13 00:47:59;;;;;;;3.35;2.25;;;19.80;99.90;;;;;;5059800;28;20052;-34
2023/06/13 00:50:28;;;;;;;3.80;2.15;;;19.70;99.90;;;;;;5067550;28;20553;-34
2023/06/13 00:53:08;;;;;;;5.03;2.35;;;19.70;99.90;;;;;;5063474;28;20094;-34
2023/06/13 00:55:34;;;;;;;6.10;2.33;;;19.60;99.90;;;;;;5067963;28;20045;-34
2023/06/13 00:58:06;;;;;;;5.55;2.15;;;19.60;99.90;;;;;;5064071;28;20098;-34
2023/06/13 01:00:33;;;;;;;4.38;2.28;;;19.50;99.90;;;;;;5065108;28;20114;-34
2023/06/13 01:02:59;;;;;;;3.67;2.17;;;19.40;99.90;;;;;;5066179;28;20109;-34
2023/06/13 01:05:28;;;;;;;8.35;3.00;;;19.40;99.90;;;;;;5066830;28;20072;-34
2023/06/13 01:07:57;;;;;;;5.07;2.53;;;19.40;99.90;;;;;;5063402;28;20075;-34
2023/06/13 01:10:25;;;;;;;4.00;2.13;;;19.30;99.90;;;;;;5067706;28;20045;-34
2023/06/13 01:13:04;;;;;;;5.03;2.22;;;19.30;99.90;;;;;;5064585;28;20048;-34
2023/06/13 01:15:34;;;;;;;6.07;2.17;;;19.20;99.90;;;;;;5061313;28;20581;-34
2023/06/13 01:18:03;;;;;;;5.43;2.40;;;19.20;99.90;;;;;;5066561;28;20049;-34
2023/06/13 01:20:31;;;;;;;6.88;2.38;;;19.20;99.90;;;;;;5063122;28;20044;-34
2023/06/13 01:23:06;;;;;;;5.18;2.75;;;19.10;99.90;;;;;;5063848;28;20052;-34
2023/06/13 01:25:59;;;;;;;8.82;2.10;;;19.10;99.90;;;;;;5065262;28;20139;-34
2023/06/13 01:28:26;;;;;;;3.88;2.45;;;19.10;99.90;;;;;;5066305;28;20048;-34
2023/06/13 01:30:53;;;;;;;4.90;2.53;;;19.10;99.90;;;;;;5066331;28;20510;-34
2023/06/13 01:33:22;;;;;;;4.75;2.78;;;19.10;99.90;;;;;;5060836;28;20056;-34
2023/06/13 01:35:48;;;;;;;4.32;2.75;;;19.00;99.90;;;;;;5061642;28;20046;-34
2023/06/13 01:38:14;;;;;;;4.00;2.42;;;19.00;99.90;;;;;;5062010;28;20506;-34
2023/06/13 01:40:40;;;;;;;3.47;1.98;;;19.00;99.90;;;;;;5066317;28;20055;-34
2023/06/13 01:43:06;;;;;;;3.80;2.28;;;19.00;99.90;;;;;;5062985;28;20074;-34
2023/06/13 01:45:31;;;;;;;4.60;2.30;;;18.90;99.90;;;;;;5065829;28;20041;-34
2023/06/13 01:48:09;;;;;;;7.25;2.38;;;18.90;99.90;;;;;;5065270;28;20494;-34
2023/06/13 01:50:35;;;;;;;5.57;2.50;;;18.90;99.90;;;;;;5060682;28;20571;-34
2023/06/13 01:53:10;;;;;;;5.65;2.53;;;18.90;99.90;;;;;;5059733;28;20128;-34
2023/06/13 01:55:42;;;;;;;3.33;2.35;;;18.80;99.90;;;;;;5063793;28;20497;-34
2023/06/13 01:58:15;;;;;;;4.60;2.42;;;18.80;99.90;;;;;;5064207;28;20072;-34
2023/06/13 02:00:43;;;;;;;5.18;2.30;;;18.70;99.90;;;;;;5044946;28;20103;-34
2023/06/13 02:03:10;;;;;;;5.60;2.53;;;18.70;99.90;;;;;;5048316;28;20036;-34
2023/06/13 02:05:36;;;;;;;7.47;2.78;;;18.60;99.90;;;;;;5063484;28;20082;-34
2023/06/13 02:08:02;;;;;;;6.45;2.78;;;18.60;99.90;;;;;;5063989;28;20049;-34
2023/06/13 02:10:28;;;;;;;5.45;2.90;;;18.50;99.90;;;;;;5065207;28;20139;-34
2023/06/13 02:12:53;;;;;;;4.80;2.75;;;18.50;99.90;;;;;;5066677;28;20155;-34
2023/06/13 02:15:19;;;;;;;5.22;2.40;;;18.50;99.90;;;;;;5059277;28;20056;-34
2023/06/13 02:17:45;;;;;;;6.63;3.05;;;18.40;99.90;;;;;;5063482;28;20068;-35
2023/06/13 02:20:12;;;;;;;4.97;2.80;;;18.40;99.90;;;;;;5062880;28;20469;-34
2023/06/13 02:22:38;;;;;;;7.80;3.15;;;18.40;99.90;;;;;;5063046;28;20092;-34
2023/06/13 02:25:04;;;;;;;6.68;3.28;;;18.40;99.90;;;;;;5060612;28;20140;-34
2023/06/13 02:27:30;;;;;;;4.72;2.58;;;18.30;99.90;;;;;;5059502;28;20098;-34
2023/06/13 02:29:56;;;;;;;7.82;3.05;;;18.20;99.90;;;;;;5064807;28;20048;-34
2023/06/13 02:32:24;;;;;;;3.83;2.55;;;18.20;99.90;;;;;;5063384;28;20050;-34
2023/06/13 02:34:51;;;;;;;10.70;3.28;;;18.20;99.90;;;;;;5064547;28;20052;-34
2023/06/13 02:37:18;;;;;;;4.55;2.38;;;18.20;99.90;;;;;;5064781;28;20052;-34
2023/06/13 02:39:43;;;;;;;7.03;2.95;;;18.10;99.90;;;;;;5064508;28;20134;-34
2023/06/13 02:42:10;;;;;;;6.85;2.60;;;18.10;99.90;;;;;;5066697;28;20044;-35
2023/06/13 02:44:36;;;;;;;7.28;3.08;;;18.10;99.90;;;;;;5063914;28;20052;-34
2023/06/13 02:47:02;;;;;;;6.63;2.80;;;18.10;99.90;;;;;;5066170;28;20446;-35
2023/06/13 02:49:28;;;;;;;5.95;2.92;;;18.10;99.90;;;;;;5064284;28;20064;-34
2023/06/13 02:51:53;;;;;;;7.35;3.00;;;18.10;99.90;;;;;;5058550;28;20060;-34
2023/06/13 02:54:19;;;;;;;5.95;2.83;;;18.10;99.90;;;;;;5079480;28;20147;-34
2023/06/13 02:56:45;;;;;;;4.18;2.75;;;18.00;99.90;;;;;;5061715;28;20060;-34
2023/06/13 02:59:10;;;;;;;5.10;3.60;;;18.00;99.90;;;;;;5065416;28;20053;-34
2023/06/13 03:01:36;;;;;;;4.75;2.88;;;18.00;99.90;;;;;;5058780;28;20056;-34
2023/06/13 03:04:02;;;;;;;5.72;3.20;;;17.90;99.90;;;;;;5066170;28;20052;-34
2023/06/13 03:06:30;;;;;;;5.63;2.83;;;17.90;99.90;;;;;;5061903;28;20052;-34
2023/06/13 03:08:58;;;;;;;6.25;2.95;;;17.80;99.90;;;;;;5063452;28;20633;-34
2023/06/13 03:11:25;;;;;;;6.68;3.13;;;17.80;99.90;;;;;;5063817;28;20143;-34
2023/06/13 03:13:50;;;;;;;4.72;2.60;;;17.80;99.90;;;;;;5055189;28;20508;-34
2023/06/13 03:16:17;;;;;;;4.40;2.78;;;17.80;99.90;;;;;;5064762;28;20076;-34
2023/06/13 03:18:43;;;;;;;4.72;2.60;;;17.80;99.90;;;;;;5060291;28;20040;-34
2023/06/13 03:21:09;;;;;;;5.50;2.90;;;17.70;99.90;;;;;;5063127;28;20052;-34
2023/06/13 03:23:35;;;;;;;6.70;3.05;;;17.70;99.90;;;;;;5059903;28;20123;-34
2023/06/13 03:26:03;;;;;;;5.32;2.75;;;17.70;99.90;;;;;;5065750;28;20140;-34
2023/06/13 03:28:28;;;;;;;11.05;4.35;;;17.70;99.90;;;;;;5060425;28;20053;-34
2023/06/13 03:30:54;;;;;;;4.75;2.92;;;17.70;99.90;;;;;;5059516;28;20059;-35
2023/06/13 03:33:22;;;;;;;5.60;2.83;;;17.60;99.90;;;;;;5065360;28;20690;-34
2023/06/13 03:35:47;;;;;;;4.60;2.78;;;17.60;99.90;;;;;;5061688;28;20067;-34
2023/06/13 03:38:13;;;;;;;4.35;2.50;;;17.60;99.90;;;;;;5062931;28;20037;-34
2023/06/13 03:40:39;;;;;;;9.00;3.35;;;17.50;99.90;;;;;;5061998;28;20072;-34
2023/06/13 03:43:04;;;;;;;4.57;2.67;;;17.60;99.90;;;;;;5066492;28;20049;-34
2023/06/13 03:45:30;;;;;;;5.55;2.75;;;17.60;99.90;;;;;;5063387;28;20052;-34
2023/06/13 03:47:56;;;;;;;3.95;2.90;;;17.50;99.90;;;;;;5063756;28;20048;-34
2023/06/13 03:50:21;;;;;;;5.80;2.88;;;17.50;99.90;;;;;;5061002;28;20045;-34
2023/06/13 03:52:47;;;;;;;4.57;2.85;;;17.50;99.90;;;;;;5061052;28;20082;-34
2023/06/13 03:55:13;;;;;;;5.88;2.97;;;17.50;99.90;;;;;;5066492;28;20509;-34
2023/06/13 03:57:40;;;;;;;6.25;3.42;;;17.40;99.90;;;;;;5068708;28;20044;-34
2023/06/13 04:00:07;;;;;;;6.88;3.65;;;17.40;99.90;;;;;;5068781;28;20528;-34
2023/06/13 04:02:33;;;;;;;7.20;2.78;;;17.40;99.90;;;;;;5063472;28;20044;-34
2023/06/13 04:05:00;;;;;;;5.47;3.13;;;17.40;99.90;;;;;;5062233;28;20040;-34
2023/06/13 04:07:27;;;;;;;5.93;2.80;;;17.40;99.90;;;;;;5068639;28;20052;-34
2023/06/13 04:09:53;;;;;;;7.03;2.95;;;17.40;99.90;;;;;;5068358;28;20068;-34
2023/06/13 04:12:19;;;;;;;4.88;2.92;;;17.40;99.90;;;;;;5067767;28;20056;-34
2023/06/13 04:14:44;;;;;;;5.18;3.05;;;17.40;99.90;;;;;;5066621;28;20056;-34
2023/06/13 04:17:10;;;;;;;7.05;3.22;;;17.40;99.90;;;;;;5067043;28;20083;-34
2023/06/13 04:19:37;;;;;;;4.07;2.67;;;17.40;99.90;;;;;;5069202;28;20135;-34
2023/06/13 04:22:05;;;;;;;7.55;2.80;;;17.40;99.90;;;;;;5065534;28;20052;-35
2023/06/13 04:24:31;;;;;;;5.43;2.80;;;17.50;99.90;;;;;;5067254;28;20049;-35
2023/06/13 04:26:57;;;;;;;13.18;3.75;;;17.50;99.90;;;;;;5063940;28;20055;-35
2023/06/13 04:29:25;;;;;;;6.55;2.83;;;17.50;99.90;;;;;;5067114;28;20152;-35
2023/06/13 04:31:50;;;;;;;4.95;2.95;;;17.50;99.90;;;;;;5061369;28;20148;-35
2023/06/13 04:34:18;;;;;;;5.00;2.58;;;17.50;99.90;;;;;;5065185;28;20159;-35
2023/06/13 04:36:44;;;;;;;6.13;2.83;;;17.50;99.90;;;;;;5064773;28;20052;-35
2023/06/13 04:39:10;;;;;;;3.63;2.42;;;17.50;99.90;;;;;;5064307;28;20070;-35
2023/06/13 04:41:38;;;;;;;4.90;2.97;;;17.50;99.90;;;;;;5063461;28;20086;-35
2023/06/13 04:44:09;;;;;;;4.43;2.80;;;17.50;99.90;;;;;;5062570;28;20060;-35
2023/06/13 04:46:36;;;;;;;5.32;2.70;;;17.50;99.90;;;;;;5067811;28;20090;-35
2023/06/13 04:49:02;;;;;;;6.45;2.95;;;17.50;99.90;;;;;;5064869;28;20063;-35
2023/06/13 04:51:28;;;;;;;9.02;3.33;;;17.60;99.90;;;;;;5067167;28;20109;-35
2023/06/13 04:53:57;;;;;;;6.95;2.95;;;17.60;99.90;;;;;;5065960;28;20045;-35
2023/06/13 04:56:24;;;;;;;6.28;2.92;;;17.60;99.90;;;;;;5062805;28;20048;-35
2023/06/13 04:58:52;;;;;;;5.97;2.75;;;17.60;99.90;;;;;;5064385;28;20485;-35
2023/06/13 05:01:21;;;;;;;6.20;2.70;;;17.70;99.90;;;;;;5063478;28;20066;-35
2023/06/13 05:03:49;;;;;;;4.82;2.95;;;17.70;99.90;;;;;;5058774;28;20044;-35
2023/06/13 05:06:15;;;;;;;6.00;3.20;;;17.70;99.90;;;;;;5055455;28;20077;-35
2023/06/13 05:08:40;;;;;;;4.85;2.72;;;17.80;99.90;;;;;;5056097;28;20102;-35
2023/06/13 05:11:06;;;;;;;5.25;2.65;;;17.80;99.90;;;;;;5056061;28;20052;-35
2023/06/13 05:13:32;;;;;;;5.57;2.75;;;17.90;99.90;;;;;;5053440;28;20044;-35
2023/06/13 05:15:58;;;;;;;4.35;2.63;;;17.90;99.90;;;;;;5053884;28;20494;-35
2023/06/13 05:18:24;;;;;;;6.15;2.55;;;17.90;99.90;;;;;;5066666;28;20452;-35
2023/06/13 05:20:50;;;;;;;5.95;2.97;;;17.90;99.90;;;;;;5061719;28;20053;-35
2023/06/13 05:23:16;;;;;;;5.90;3.20;;;18.00;99.90;;;;;;5062219;28;20146;-35
2023/06/13 05:25:42;;;;;;;4.93;2.97;;;18.20;99.90;;;;;;5064300;28;20051;-34
2023/06/13 05:28:08;;;;;;;7.03;2.90;;;18.30;99.90;;;;;;5063265;28;20052;-34
2023/06/13 05:30:33;;;;;;;8.30;2.88;;;18.30;99.90;;;;;;5062323;28;20406;-34
2023/06/13 05:32:59;;;;;;;4.80;2.92;;;18.40;99.90;;;;;;5077111;28;20053;-34
2023/06/13 05:35:25;;;;;;;5.22;2.78;;;18.50;99.90;;;;;;5062860;28;20058;-35
2023/06/13 05:37:51;;;;;;;5.35;3.10;;;18.60;99.90;;;;;;5053525;28;20040;-34
2023/06/13 05:40:17;;;;;;;4.18;2.47;;;18.70;99.90;;;;;;5051696;28;20049;-35
2023/06/13 05:42:43;;;;;;;3.95;2.28;;;18.80;99.90;;;;;;5059928;28;20040;-34
2023/06/13 05:45:09;;;;;;;5.43;2.83;;;18.80;99.90;;;;;;5063685;28;20079;-35
2023/06/13 05:47:35;;;;;;;4.82;2.60;;;18.90;99.90;;;;;;5075842;28;20052;-34
2023/06/13 05:50:01;;;;;;;5.78;2.75;;;19.00;99.90;;;;;;5059214;28;20045;-34
2023/06/13 05:52:27;;;;;;;3.97;2.58;;;19.10;99.90;;;;;;5062420;28;20056;-34
2023/06/13 05:54:53;;;;;;;5.07;2.28;;;19.20;99.90;;;;;;5059975;28;20119;-34
2023/06/13 05:57:19;;;;;;;3.15;2.10;;;19.30;99.90;;;;;;5063703;28;20049;-34
2023/06/13 05:59:45;;;;;;;5.28;2.90;;;19.40;99.90;;;;;;5058222;28;20497;-34
2023/06/13 06:02:11;;;;;;;4.97;2.53;;;19.50;99.90;;;;;;5059335;28;20044;-34
2023/06/13 06:04:37;;;;;;;12.85;3.00;;;19.60;99.90;;;;;;5062025;28;20048;-34
2023/06/13 06:07:04;;;;;;;4.32;2.85;;;19.60;99.90;;;;;;5061134;28;20048;-34
2023/06/13 06:09:30;;;;;;;5.07;2.50;;;19.70;99.90;;;;;;5061247;28;20053;-35
2023/06/13 06:11:56;;;;;;;3.47;2.15;;;19.80;99.90;;;;;;5061597;28;20543;-43
2023/06/13 06:14:22;;;;;;;5.43;2.70;;;19.80;99.90;;;;;;5060887;28;20435;-35
2023/06/13 06:16:48;;;;;;;8.02;2.75;;;19.90;99.90;;;;;;5063826;28;20063;-35
2023/06/13 06:19:13;;;;;;;4.55;2.20;;;19.90;99.90;;;;;;5064573;28;20052;-35
2023/06/13 06:21:39;;;;;;;4.32;2.42;;;19.90;99.90;;;;;;5067282;28;20047;-35
2023/06/13 06:24:06;;;;;;;4.80;2.25;;;19.90;99.90;;;;;;5060831;28;20091;-34
2023/06/13 06:26:32;;;;;;;4.72;2.20;;;19.90;99.90;;;;;;5067798;28;20105;-35
2023/06/13 06:28:58;;;;;;;5.85;2.40;;;20.00;99.90;;;;;;5064055;28;20048;-35
2023/06/13 06:31:24;;;;;;;5.70;2.45;;;20.10;99.90;;;;;;5066785;28;20490;-35
2023/06/13 06:33:49;;;;;;;4.57;2.90;;;20.10;99.90;;;;;;5063164;28;20041;-34
2023/06/13 06:36:15;;;;;;;7.10;2.83;;;20.20;99.90;;;;;;5065145;28;20070;-34
2023/06/13 06:38:42;;;;;;;3.53;2.17;;;20.30;99.90;;;;;;5063443;28;20048;-34
2023/06/13 06:41:08;;;;;;;3.85;2.28;;;20.40;99.90;;;;;;5064095;28;20472;-33
2023/06/13 06:43:34;;;;;;;4.82;2.53;;;20.50;99.90;;;;;;5066217;28;20044;-34
2023/06/13 06:46:00;;;;;;;4.63;2.40;;;20.60;99.90;;;;;;5066182;28;20052;-34
2023/06/13 06:48:25;;;;;;;6.80;2.67;;;20.70;99.90;;;;;;5064820;28;20401;-34
2023/06/13 06:50:52;;;;;;;4.35;2.30;;;20.90;99.90;;;;;;5063762;28;20051;-34
2023/06/13 06:53:18;;;;;;;3.70;2.20;;;20.90;99.90;;;;;;5059373;28;20045;-33
2023/06/13 06:55:44;;;;;;;5.20;2.50;;;21.00;99.90;;;;;;5064406;28;20048;-34
2023/06/13 06:58:09;;;;;;;6.78;2.80;;;21.10;99.90;;;;;;5059214;28;20175;-34
2023/06/13 07:00:35;;;;;;;6.80;2.72;;;21.10;99.90;;;;;;5067444;28;20075;-35
2023/06/13 07:03:00;;;;;;;6.03;2.45;;;21.20;99.90;;;;;;5059666;28;20214;-35
2023/06/13 07:05:26;;;;;;;4.43;2.15;;;21.30;99.90;;;;;;5060086;28;20055;-35
2023/06/13 07:07:52;;;;;;;5.93;2.58;;;21.30;99.90;;;;;;5056872;28;20052;-35
2023/06/13 07:10:18;;;;;;;6.70;2.30;;;21.40;99.90;;;;;;5076505;28;20410;-35
2023/06/13 07:12:43;;;;;;;5.65;2.50;;;21.50;99.90;;;;;;5062391;28;20051;-35
2023/06/13 07:15:09;;;;;;;3.85;2.00;;;21.50;99.90;;;;;;5064914;28;20063;-35
2023/06/13 07:17:35;;;;;;;5.22;2.95;;;21.60;99.90;;;;;;5065102;28;20107;-35
2023/06/13 07:20:05;;;;;;;4.60;2.42;;;21.70;99.90;;;;;;5061013;28;20150;-35
2023/06/13 07:22:30;;;;;;;6.60;2.85;;;21.80;99.90;;;;;;5064474;28;20052;-35
2023/06/13 07:24:56;;;;;;;5.25;2.20;;;21.90;99.90;;;;;;5063925;28;20067;-35
2023/06/13 07:27:22;;;;;;;5.22;2.50;;;21.90;99.90;;;;;;5063502;28;20563;-34
2023/06/13 07:29:47;;;;;;;7.82;2.28;;;22.00;99.90;;;;;;5065567;28;20053;-35
2023/06/13 07:32:13;;;;;;;5.95;2.70;;;22.10;99.90;;;;;;5071153;28;20468;-35
2023/06/13 07:34:39;;;;;;;6.80;2.38;;;22.20;99.90;;;;;;5065180;28;20041;-35
2023/06/13 07:37:04;;;;;;;4.25;2.45;;;22.20;99.90;;;;;;5064772;28;20049;-35
2023/06/13 07:39:30;;;;;;;3.40;2.17;;;22.30;99.90;;;;;;5052795;28;20174;-35
2023/06/13 07:41:56;;;;;;;3.97;2.10;;;22.30;99.90;;;;;;5068612;28;20052;-35
2023/06/13 07:44:21;;;;;;;5.28;2.38;;;22.40;99.90;;;;;;5067479;28;20129;-35
2023/06/13 07:46:47;;;;;;;5.45;2.08;;;22.40;99.90;;;;;;5063825;28;20525;-34
2023/06/13 07:49:14;;;;;;;3.10;1.90;;;22.50;99.90;;;;;;5066068;28;20052;-33
2023/06/13 07:51:40;;;;;;;8.73;2.40;;;22.60;99.90;;;;;;5066344;28;20121;-33
2023/06/13 07:54:06;;;;;;;3.75;2.40;;;22.70;99.90;;;;;;5069263;28;20076;-34
2023/06/13 07:56:32;;;;;;;6.40;2.17;;;22.80;99.90;;;;;;5065810;28;20737;-34
2023/06/13 07:58:58;;;;;;;6.97;2.58;;;22.90;99.90;;;;;;5062216;28;20056;-34
2023/06/13 08:01:23;;;;;;;5.28;2.33;;;22.90;99.90;;;;;;5062188;28;20059;-33
2023/06/13 08:03:49;;;;;;;5.15;2.78;;;22.90;99.90;;;;;;5066563;28;20421;-35
2023/06/13 08:06:15;;;;;;;5.88;2.42;;;22.90;99.90;;;;;;5064609;28;20537;-35
2023/06/13 08:08:41;;;;;;;3.67;2.00;;;23.00;99.90;;;;;;5066796;28;20048;-35
2023/06/13 08:11:06;;;;;;;5.03;2.60;;;23.10;99.90;;;;;;5064939;28;20055;-35
2023/06/13 08:13:32;;;;;;;5.63;2.60;;;23.20;99.90;;;;;;5066994;28;20045;-34
2023/06/13 08:15:57;;;;;;;2.83;1.92;;;23.40;99.90;;;;;;5067448;28;20124;-34
2023/06/13 08:18:23;;;;;;;7.53;2.40;;;23.50;99.90;;;;;;5064377;28;20045;-35
2023/06/13 08:20:49;;;;;;;5.28;2.80;;;23.60;99.90;;;;;;5064900;28;20052;-35
2023/06/13 08:23:14;;;;;;;6.20;2.65;;;23.70;99.90;;;;;;5063655;28;20072;-35
2023/06/13 08:25:41;;;;;;;6.57;2.67;;;23.80;99.90;;;;;;5065002;28;20127;-35
2023/06/13 08:28:07;;;;;;;5.43;2.47;;;23.80;99.90;;;;;;5064248;28;20048;-35
2023/06/13 08:30:33;;;;;;;3.50;2.78;;;23.90;99.90;;;;;;5065857;28;20429;-34
2023/06/13 08:33:01;;;;;;;6.43;2.65;;;23.80;99.90;;;;;;5068279;28;20181;-35
2023/06/13 08:35:27;;;;;;;7.07;2.80;;;23.90;99.90;;;;;;5063400;28;20123;-35
2023/06/13 08:37:53;;;;;;;4.47;2.50;;;24.00;99.90;;;;;;5065852;28;20585;-36
2023/06/13 08:40:19;;;;;;;4.50;2.63;;;24.00;99.90;;;;;;5068079;28;20056;-35
2023/06/13 08:42:46;;;;;;;9.90;2.88;;;24.00;99.90;;;;;;5066491;28;20044;-40
2023/06/13 08:45:12;;;;;;;9.00;2.78;;;24.20;99.90;;;;;;5065150;28;20417;-35
2023/06/13 08:47:39;;;;;;;3.78;2.55;;;24.20;99.90;;;;;;5066546;28;20052;-36
2023/06/13 08:50:11;;;;;;;4.10;2.47;;;24.30;99.90;;;;;;5068512;28;20414;-36
2023/06/13 08:52:41;;;;;;;5.03;2.72;;;24.40;99.90;;;;;;5059149;28;20061;-36
2023/06/13 08:55:11;;;;;;;4.55;2.47;;;24.50;99.90;;;;;;5067412;28;20063;-35
2023/06/13 08:57:39;;;;;;;13.68;3.22;;;24.50;99.90;;;;;;5063978;28;20481;-34
2023/06/13 09:00:09;;;;;;;7.72;2.58;;;24.60;99.90;;;;;;5066075;28;20053;-35
2023/06/13 09:02:36;;;;;;;4.75;2.80;;;24.70;99.90;;;;;;5067129;28;20044;-35
2023/06/13 09:05:03;;;;;;;5.15;2.50;;;24.70;99.90;;;;;;5067049;28;20052;-35
2023/06/13 09:07:30;;;;;;;4.78;2.47;;;24.80;99.90;;;;;;5061212;28;20048;-35
2023/06/13 09:09:57;;;;;;;5.40;2.97;;;24.90;99.90;;;;;;5063519;28;20056;-35
2023/06/13 09:12:23;;;;;;;6.43;2.75;;;24.90;99.90;;;;;;5065744;28;20509;-35
2023/06/13 09:14:49;;;;;;;5.00;2.45;;;25.00;99.90;;;;;;5065415;28;20056;-35
2023/06/13 09:17:16;;;;;;;4.60;2.60;;;25.20;99.90;;;;;;5066689;28;20397;-35
2023/06/13 09:19:43;;;;;;;4.68;2.60;;;25.30;99.90;;;;;;5067199;28;20136;-35
2023/06/13 09:22:08;;;;;;;3.70;2.90;;;25.40;99.90;;;;;;5063493;28;20485;-35
2023/06/13 09:24:36;;;;;;;3.75;2.72;;;25.50;99.90;;;;;;5064046;28;20049;-35
2023/06/13 09:27:02;;;;;;;3.17;2.53;;;25.60;99.90;;;;;;5064910;28;20551;-39
2023/06/13 09:29:32;;;;;;;7.68;2.78;;;25.70;99.90;;;;;;5064136;28;20056;-36
2023/06/13 09:32:01;;;;;;;5.57;2.75;;;25.80;99.90;;;;;;5066006;28;20060;-35
2023/06/13 09:34:30;;;;;;;5.47;2.53;;;25.80;99.90;;;;;;5062934;28;20044;-35
2023/06/13 09:36:57;;;;;;;4.38;2.63;;;25.90;99.90;;;;;;5064519;28;20426;-35
2023/06/13 09:39:24;;;;;;;4.95;2.40;;;26.00;99.90;;;;;;5065162;28;20054;-35
2023/06/13 09:41:56;;;;;;;5.60;2.65;;;26.10;99.90;;;;;;5067842;28;20061;-35
2023/06/13 09:44:24;;;;;;;4.72;2.47;;;26.20;99.90;;;;;;5063616;28;20048;-35
2023/06/13 09:46:50;;;;;;;5.80;2.00;;;26.30;99.90;;;;;;5062008;28;20052;-34
2023/06/13 09:49:17;;;;;;;2.90;2.05;;;26.40;99.90;;;;;;5064947;28;20516;-34
2023/06/13 09:51:44;;;;;;;3.13;2.05;;;26.60;99.90;;;;;;5060582;28;20409;-34
2023/06/13 09:54:10;;;;;;;3.85;2.40;;;26.70;99.90;;;;;;5064909;28;20117;-34
2023/06/13 09:56:36;;;;;;;3.45;2.00;;;26.80;99.90;;;;;;5062487;28;20044;-34
2023/06/13 09:59:02;;;;;;;10.88;2.30;;;26.80;99.90;;;;;;5065580;28;20123;-34
2023/06/13 10:01:34;;;;;;;3.47;2.15;;;26.90;99.90;;;;;;5060754;28;20375;-35
2023/06/13 10:04:01;;;;;;;4.85;2.20;;;27.10;99.90;;;;;;5066640;28;20555;-35
2023/06/13 10:06:27;;;;;;;6.47;2.60;;;27.20;99.90;;;;;;5065007;28;20512;-35
2023/06/13 10:08:52;;;;;;;3.33;2.22;;;27.40;99.90;;;;;;5066574;28;20048;-35
2023/06/13 10:11:24;;;;;;;5.30;2.40;;;27.50;99.90;;;;;;5067743;28;20071;-34
2023/06/13 10:14:02;;;;;;;2.95;2.10;;;27.60;99.90;;;;;;5056295;28;20055;-35
2023/06/13 10:16:30;;;;;;;6.60;2.30;;;27.60;99.90;;;;;;5064231;28;20048;-34
2023/06/13 10:18:58;;;;;;;6.43;2.47;;;27.60;99.90;;;;;;5058097;28;20371;-34
2023/06/13 10:21:24;;;;;;;3.08;2.00;;;27.70;99.90;;;;;;5066761;28;20049;-34
2023/06/13 10:23:51;;;;;;;4.68;2.63;;;27.80;99.90;;;;;;5054982;28;20057;-34
2023/06/13 10:26:39;;;;;;;3.20;2.33;;;28.00;99.90;;;;;;5064271;28;20118;-34
2023/06/13 10:29:11;;;;;;;3.75;3.15;;;28.00;99.90;;;;;;5059080;28;20072;-35
2023/06/13 10:31:36;;;;;;;3.70;2.65;;;28.00;99.90;;;;;;5061335;28;20044;-35
2023/06/13 10:34:40;;;;;;;3.65;2.92;;;28.10;99.90;;;;;;5062017;28;20505;-34
2023/06/13 10:37:23;;;;;;;3.60;3.13;;;28.10;99.90;;;;;;5060655;28;20559;-36
2023/06/13 10:40:05;;;;;;;3.55;2.90;;;28.00;99.90;;;;;;5065970;28;20055;-35
2023/06/13 10:42:40;;;;;;;5.37;3.10;;;28.10;99.90;;;;;;5055440;28;20056;-35
2023/06/13 10:45:16;;;;;;;6.97;3.75;;;28.20;99.90;;;;;;5065164;28;20057;-36
2023/06/13 10:47:41;;;;;;;6.28;2.95;;;28.40;99.90;;;;;;5059299;28;20052;-36
2023/06/13 10:50:08;;;;;;;3.42;2.90;;;28.40;99.90;;;;;;5064055;28;20082;-36
2023/06/13 10:52:34;;;;;;;5.57;2.92;;;28.50;99.90;;;;;;5063219;28;20060;-37
2023/06/13 10:55:01;;;;;;;3.88;2.90;;;28.50;99.90;;;;;;5062288;28;20070;-36
2023/06/13 10:58:09;;;;;;;7.55;3.10;;;28.60;99.90;;;;;;5065593;28;20052;-36
2023/06/13 11:00:37;;;;;;;4.32;2.80;;;28.60;99.90;;;;;;5023562;28;20591;-36
2023/06/13 11:03:07;;;;;;;3.80;3.08;;;28.70;99.90;;;;;;5059559;28;20158;-36
2023/06/13 11:05:50;;;;;;;6.60;3.53;;;28.80;99.90;;;;;;5061492;28;20054;-36
2023/06/13 11:08:19;;;;;;;4.00;3.33;;;28.80;99.90;;;;;;5061199;28;20147;-36
2023/06/13 11:10:46;;;;;;;6.53;3.53;;;28.90;99.90;;;;;;5060915;28;20433;-36
2023/06/13 11:13:18;;;;;;;6.82;3.70;;;29.00;99.90;;;;;;5062655;28;20045;-42
2023/06/13 11:15:44;;;;;;;3.90;2.50;;;29.10;99.90;;;;;;5066493;28;20490;-36
2023/06/13 11:18:10;;;;;;;6.43;2.70;;;29.20;99.90;;;;;;5043083;28;20101;-36
2023/06/13 11:20:56;;;;;;;4.75;2.65;;;29.20;99.90;;;;;;5065958;28;20052;-36
2023/06/13 11:23:23;;;;;;;4.25;2.85;;;29.20;99.90;;;;;;5060237;28;20051;-36
2023/06/13 11:25:50;;;;;;;6.75;2.63;;;29.20;99.90;;;;;;5062979;28;20049;-36
2023/06/13 11:28:18;;;;;;;5.10;2.15;;;29.20;99.90;;;;;;5062673;28;20051;-36
2023/06/13 11:30:45;;;;;;;5.47;2.50;;;29.30;99.90;;;;;;5062515;28;20051;-36
2023/06/13 11:33:12;;;;;;;4.05;1.98;;;29.30;99.90;;;;;;5064850;28;20086;-36
2023/06/13 11:35:41;;;;;;;4.97;2.55;;;29.40;99.90;;;;;;5059802;28;20070;-36
2023/06/13 11:38:15;;;;;;;3.40;2.28;;;29.50;99.90;;;;;;5058323;28;20049;-36
2023/06/13 11:40:46;;;;;;;6.40;2.28;;;29.60;99.90;;;;;;5055438;28;20083;-36
2023/06/13 11:43:13;;;;;;;6.25;3.58;;;29.70;99.90;;;;;;5063734;28;20051;-36
2023/06/13 11:45:40;;;;;;;4.57;2.13;;;29.70;99.90;;;;;;5063356;28;20099;-36
2023/06/13 11:48:06;;;;;;;6.90;3.00;;;29.70;99.90;;;;;;5063040;28;20048;-36
2023/06/13 11:50:32;;;;;;;3.78;2.40;;;29.70;99.90;;;;;;5060998;28;20090;-36
2023/06/13 11:53:05;;;;;;;2.78;2.05;;;29.80;99.90;;;;;;5063749;28;20052;-36
2023/06/13 11:55:31;;;;;;;4.15;2.35;;;29.70;99.90;;;;;;5064094;28;20048;-36
2023/06/13 11:57:57;;;;;;;5.32;2.40;;;29.70;99.90;;;;;;5056479;28;20079;-36
2023/06/13 12:00:26;;;;;;;3.10;2.10;;;29.80;99.90;;;;;;5064504;28;20449;-36
2023/06/13 12:02:52;;;;;;;5.00;2.53;;;29.80;99.90;;;;;;5065019;28;20123;-36
2023/06/13 12:05:19;;;;;;;5.43;2.55;;;29.80;99.90;;;;;;5065661;28;20110;-36
2023/06/13 12:07:45;;;;;;;3.53;2.35;;;29.80;99.90;;;;;;5060695;28;20045;-36
2023/06/13 12:10:12;;;;;;;4.63;2.25;;;29.70;99.90;;;;;;5061261;28;20056;-36
2023/06/13 12:12:39;;;;;;;4.80;2.33;;;29.80;99.90;;;;;;5062787;28;20048;-36
2023/06/13 12:15:07;;;;;;;6.35;2.33;;;29.90;99.90;;;;;;5063035;28;20060;-37
2023/06/13 12:17:32;;;;;;;4.53;2.70;;;29.90;99.90;;;;;;5062938;28;20052;-36
2023/06/13 12:20:10;;;;;;;2.97;2.28;;;30.00;99.90;;;;;;5067993;28;20060;-36
2023/06/13 12:22:36;;;;;;;3.47;1.95;;;30.10;99.90;;;;;;5065903;28;20056;-36
2023/06/13 12:25:02;;;;;;;3.60;2.38;;;30.30;99.90;;;;;;5066504;28;20040;-37
2023/06/13 12:27:28;;;;;;;3.72;2.72;;;30.30;99.90;;;;;;5066747;28;20082;-36
2023/06/13 12:29:54;;;;;;;4.45;2.28;;;30.40;99.90;;;;;;5072309;28;20080;-37
2023/06/13 12:32:25;;;;;;;4.30;2.85;;;30.40;99.90;;;;;;5064804;28;20575;-36
2023/06/13 12:34:51;;;;;;;6.50;2.38;;;30.40;99.90;;;;;;5061691;28;20049;-35
2023/06/13 12:37:17;;;;;;;4.70;2.20;;;30.40;99.90;;;;;;5067174;28;20044;-35
2023/06/13 12:40:12;;;;;;;4.45;2.17;;;30.50;99.90;;;;;;5064802;28;20460;-35
2023/06/13 12:42:42;;;;;;;4.75;2.38;;;30.60;99.90;;;;;;5062837;28;20151;-35
2023/06/13 12:45:11;;;;;;;3.58;2.08;;;30.40;99.90;;;;;;5068106;28;20065;-35
2023/06/13 12:47:37;;;;;;;3.65;2.22;;;30.50;99.90;;;;;;5060945;28;20061;-36